sensor_id;sensor_type;location;lat;lon;timestamp;P1;durP1;ratioP1;P2;durP2;ratioP2
9900;SDS011;4989;48.772;9.154;2023-10-19T00:00:38;13.30;;;12.80;;
9900;SDS011;4989;48.772;9.154;2023-10-19T00:05:46;13.10;;;12.60;;
9900;SDS011;4989;48.772;9.154;2023-10-19T00:10:51;13.10;;;12.60;;
9900;SDS011;4989;48.772;9.154;2023-10-19T00:16:10;13.43;;;12.93;;
9900;SDS011;4989;48.772;9.154;2023-10-19T00:21:19;13.93;;;13.40;;
9900;SDS011;4989;48.772;9.154;2023-10-19T00:26:30;15.70;;;15.07;;
9900;SDS011;4989;48.772;9.154;2023-10-19T00:31:33;15.63;;;15.03;;
9900;SDS011;4989;48.772;9.154;2023-10-19T00:36:41;15.43;;;14.83;;
9900;SDS011;4989;48.772;9.154;2023-10-19T00:41:43;15.13;;;14.53;;
9900;SDS011;4989;48.772;9.154;2023-10-19T00:46:47;15.30;;;14.70;;
9900;SDS011;4989;48.772;9.154;2023-10-19T00:51:58;15.23;;;14.63;;
9900;SDS011;4989;48.772;9.154;2023-10-19T00:57:21;15.43;;;14.83;;
9900;SDS011;4989;48.772;9.154;2023-10-19T01:02:35;15.43;;;14.83;;
9900;SDS011;4989;48.772;9.154;2023-10-19T01:07:45;15.83;;;15.17;;
9900;SDS011;4989;48.772;9.154;2023-10-19T01:12:48;16.70;;;16.00;;
9900;SDS011;4989;48.772;9.154;2023-10-19T01:17:55;16.37;;;15.67;;
9900;SDS011;4989;48.772;9.154;2023-10-19T01:23:00;16.50;;;15.80;;
9900;SDS011;4989;48.772;9.154;2023-10-19T01:28:10;16.40;;;15.70;;
9900;SDS011;4989;48.772;9.154;2023-10-19T01:33:15;16.23;;;15.53;;
9900;SDS011;4989;48.772;9.154;2023-10-19T01:38:17;16.10;;;15.40;;
9900;SDS011;4989;48.772;9.154;2023-10-19T01:43:19;16.10;;;15.40;;
9900;SDS011;4989;48.772;9.154;2023-10-19T01:48:34;16.30;;;15.60;;
9900;SDS011;4989;48.772;9.154;2023-10-19T01:53:38;15.90;;;15.20;;
9900;SDS011;4989;48.772;9.154;2023-10-19T01:58:41;15.70;;;15.07;;
9900;SDS011;4989;48.772;9.154;2023-10-19T02:03:51;16.37;;;15.67;;
9900;SDS011;4989;48.772;9.154;2023-10-19T02:09:00;16.27;;;15.57;;
9900;SDS011;4989;48.772;9.154;2023-10-19T02:14:19;16.20;;;15.50;;
9900;SDS011;4989;48.772;9.154;2023-10-19T02:19:22;16.30;;;15.60;;
9900;SDS011;4989;48.772;9.154;2023-10-19T02:24:27;19.37;;;18.57;;
9900;SDS011;4989;48.772;9.154;2023-10-19T02:29:30;19.43;;;18.63;;
9900;SDS011;4989;48.772;9.154;2023-10-19T02:34:33;18.33;;;17.57;;
9900;SDS011;4989;48.772;9.154;2023-10-19T02:39:38;18.80;;;18.00;;
9900;SDS011;4989;48.772;9.154;2023-10-19T02:44:43;19.30;;;18.50;;
9900;SDS011;4989;48.772;9.154;2023-10-19T02:49:45;18.90;;;18.10;;
9900;SDS011;4989;48.772;9.154;2023-10-19T02:54:54;19.23;;;18.43;;
9900;SDS011;4989;48.772;9.154;2023-10-19T02:59:58;19.23;;;18.43;;
9900;SDS011;4989;48.772;9.154;2023-10-19T03:05:01;17.53;;;16.83;;
9900;SDS011;4989;48.772;9.154;2023-10-19T03:10:14;18.97;;;18.17;;
9900;SDS011;4989;48.772;9.154;2023-10-19T03:15:26;19.30;;;18.50;;
9900;SDS011;4989;48.772;9.154;2023-10-19T03:20:31;19.23;;;18.43;;
9900;SDS011;4989;48.772;9.154;2023-10-19T03:25:34;19.80;;;18.97;;
9900;SDS011;4989;48.772;9.154;2023-10-19T03:31:06;18.97;;;18.17;;
9900;SDS011;4989;48.772;9.154;2023-10-19T03:36:09;19.13;;;18.33;;
9900;SDS011;4989;48.772;9.154;2023-10-19T03:41:14;19.30;;;18.50;;
9900;SDS011;4989;48.772;9.154;2023-10-19T03:46:18;19.30;;;18.50;;
9900;SDS011;4989;48.772;9.154;2023-10-19T03:51:30;19.20;;;18.40;;
9900;SDS011;4989;48.772;9.154;2023-10-19T03:56:55;18.57;;;17.77;;
9900;SDS011;4989;48.772;9.154;2023-10-19T04:01:58;18.40;;;17.60;;
9900;SDS011;4989;48.772;9.154;2023-10-19T04:07:02;19.20;;;18.40;;
9900;SDS011;4989;48.772;9.154;2023-10-19T04:12:12;19.40;;;18.60;;
9900;SDS011;4989;48.772;9.154;2023-10-19T04:17:14;19.33;;;18.53;;
9900;SDS011;4989;48.772;9.154;2023-10-19T04:22:18;19.07;;;18.27;;
9900;SDS011;4989;48.772;9.154;2023-10-19T04:27:24;18.97;;;18.17;;
9900;SDS011;4989;48.772;9.154;2023-10-19T04:32:28;19.03;;;18.23;;
9900;SDS011;4989;48.772;9.154;2023-10-19T04:37:30;19.03;;;18.23;;
9900;SDS011;4989;48.772;9.154;2023-10-19T04:42:32;18.73;;;17.93;;
9900;SDS011;4989;48.772;9.154;2023-10-19T04:47:34;19.20;;;18.40;;
9900;SDS011;4989;48.772;9.154;2023-10-19T04:52:39;19.40;;;18.60;;
9900;SDS011;4989;48.772;9.154;2023-10-19T04:57:42;18.93;;;18.13;;
9900;SDS011;4989;48.772;9.154;2023-10-19T05:02:44;20.27;;;19.40;;
9900;SDS011;4989;48.772;9.154;2023-10-19T05:07:46;19.03;;;18.23;;
9900;SDS011;4989;48.772;9.154;2023-10-19T05:12:49;18.97;;;18.17;;
9900;SDS011;4989;48.772;9.154;2023-10-19T05:17:51;19.30;;;18.50;;
9900;SDS011;4989;48.772;9.154;2023-10-19T05:22:55;19.20;;;18.40;;
9900;SDS011;4989;48.772;9.154;2023-10-19T05:27:57;18.90;;;18.10;;
9900;SDS011;4989;48.772;9.154;2023-10-19T05:33:00;18.87;;;18.07;;
9900;SDS011;4989;48.772;9.154;2023-10-19T05:38:03;18.80;;;18.00;;
9900;SDS011;4989;48.772;9.154;2023-10-19T05:43:05;18.60;;;17.80;;
9900;SDS011;4989;48.772;9.154;2023-10-19T05:48:09;19.23;;;18.43;;
9900;SDS011;4989;48.772;9.154;2023-10-19T05:53:13;19.33;;;18.53;;
9900;SDS011;4989;48.772;9.154;2023-10-19T05:58:20;19.50;;;18.70;;
9900;SDS011;4989;48.772;9.154;2023-10-19T06:03:22;19.13;;;18.33;;
9900;SDS011;4989;48.772;9.154;2023-10-19T06:08:24;20.20;;;19.30;;
9900;SDS011;4989;48.772;9.154;2023-10-19T06:13:26;20.77;;;19.87;;
9900;SDS011;4989;48.772;9.154;2023-10-19T06:18:29;21.50;;;20.50;;
9900;SDS011;4989;48.772;9.154;2023-10-19T06:23:31;21.83;;;20.83;;
9900;SDS011;4989;48.772;9.154;2023-10-19T06:28:33;22.10;;;21.10;;
9900;SDS011;4989;48.772;9.154;2023-10-19T06:33:40;22.20;;;21.20;;
9900;SDS011;4989;48.772;9.154;2023-10-19T06:38:43;22.17;;;21.17;;
9900;SDS011;4989;48.772;9.154;2023-10-19T06:43:46;21.10;;;20.20;;
9900;SDS011;4989;48.772;9.154;2023-10-19T06:48:48;21.23;;;20.30;;
9900;SDS011;4989;48.772;9.154;2023-10-19T06:53:52;21.10;;;20.20;;
9900;SDS011;4989;48.772;9.154;2023-10-19T06:58:55;20.90;;;20.00;;
9900;SDS011;4989;48.772;9.154;2023-10-19T07:03:57;20.37;;;19.47;;
9900;SDS011;4989;48.772;9.154;2023-10-19T07:09:00;21.13;;;20.23;;
9900;SDS011;4989;48.772;9.154;2023-10-19T07:14:05;21.07;;;20.13;;
9900;SDS011;4989;48.772;9.154;2023-10-19T07:19:09;21.40;;;20.43;;
9900;SDS011;4989;48.772;9.154;2023-10-19T07:24:11;20.73;;;19.83;;
9900;SDS011;4989;48.772;9.154;2023-10-19T07:29:13;20.83;;;19.93;;
9900;SDS011;4989;48.772;9.154;2023-10-19T07:34:16;20.33;;;19.43;;
9900;SDS011;4989;48.772;9.154;2023-10-19T07:39:19;21.10;;;20.17;;
9900;SDS011;4989;48.772;9.154;2023-10-19T07:44:22;21.67;;;20.67;;
9900;SDS011;4989;48.772;9.154;2023-10-19T07:49:24;21.83;;;20.83;;
9900;SDS011;4989;48.772;9.154;2023-10-19T07:54:27;21.47;;;20.47;;
9900;SDS011;4989;48.772;9.154;2023-10-19T07:59:29;22.10;;;21.10;;
9900;SDS011;4989;48.772;9.154;2023-10-19T08:04:32;21.83;;;20.83;;
9900;SDS011;4989;48.772;9.154;2023-10-19T08:09:35;22.10;;;21.10;;
9900;SDS011;4989;48.772;9.154;2023-10-19T08:14:37;22.30;;;21.30;;
9900;SDS011;4989;48.772;9.154;2023-10-19T08:19:39;22.13;;;21.13;;
9900;SDS011;4989;48.772;9.154;2023-10-19T08:24:42;22.07;;;21.07;;
9900;SDS011;4989;48.772;9.154;2023-10-19T08:29:47;23.17;;;22.07;;
9900;SDS011;4989;48.772;9.154;2023-10-19T08:34:50;23.67;;;22.57;;
9900;SDS011;4989;48.772;9.154;2023-10-19T08:39:53;24.27;;;23.07;;
9900;SDS011;4989;48.772;9.154;2023-10-19T08:44:56;23.93;;;22.80;;
9900;SDS011;4989;48.772;9.154;2023-10-19T08:50:02;24.60;;;23.40;;
9900;SDS011;4989;48.772;9.154;2023-10-19T08:55:07;23.53;;;22.43;;
9900;SDS011;4989;48.772;9.154;2023-10-19T09:00:11;24.37;;;23.17;;
9900;SDS011;4989;48.772;9.154;2023-10-19T09:05:19;24.50;;;23.30;;
9900;SDS011;4989;48.772;9.154;2023-10-19T09:10:26;23.87;;;22.73;;
9900;SDS011;4989;48.772;9.154;2023-10-19T09:15:33;23.33;;;22.23;;
9900;SDS011;4989;48.772;9.154;2023-10-19T09:20:41;24.63;;;23.43;;
9900;SDS011;4989;48.772;9.154;2023-10-19T09:25:56;24.07;;;22.90;;
9900;SDS011;4989;48.772;9.154;2023-10-19T09:31:00;24.27;;;23.10;;
9900;SDS011;4989;48.772;9.154;2023-10-19T09:36:03;24.47;;;23.27;;
9900;SDS011;4989;48.772;9.154;2023-10-19T09:41:07;24.37;;;23.17;;
9900;SDS011;4989;48.772;9.154;2023-10-19T09:46:25;25.00;;;23.80;;
9900;SDS011;4989;48.772;9.154;2023-10-19T09:51:31;25.03;;;23.83;;
9900;SDS011;4989;48.772;9.154;2023-10-19T09:56:41;26.80;;;25.50;;
9900;SDS011;4989;48.772;9.154;2023-10-19T10:07:17;25.10;;;23.90;;
9900;SDS011;4989;48.772;9.154;2023-10-19T10:12:39;25.63;;;24.33;;
9900;SDS011;4989;48.772;9.154;2023-10-19T10:17:41;25.00;;;23.80;;
9900;SDS011;4989;48.772;9.154;2023-10-19T10:22:43;24.97;;;23.77;;
9900;SDS011;4989;48.772;9.154;2023-10-19T10:27:53;23.77;;;22.60;;
9900;SDS011;4989;48.772;9.154;2023-10-19T10:32:56;24.47;;;23.27;;
9900;SDS011;4989;48.772;9.154;2023-10-19T10:38:01;24.60;;;23.40;;
9900;SDS011;4989;48.772;9.154;2023-10-19T10:43:07;24.67;;;23.47;;
9900;SDS011;4989;48.772;9.154;2023-10-19T10:48:13;24.40;;;23.20;;
9900;SDS011;4989;48.772;9.154;2023-10-19T10:53:15;24.10;;;22.93;;
9900;SDS011;4989;48.772;9.154;2023-10-19T10:58:17;24.47;;;23.27;;
9900;SDS011;4989;48.772;9.154;2023-10-19T11:03:20;25.07;;;23.87;;
9900;SDS011;4989;48.772;9.154;2023-10-19T11:08:23;24.37;;;23.20;;
9900;SDS011;4989;48.772;9.154;2023-10-19T11:13:26;24.40;;;23.20;;
9900;SDS011;4989;48.772;9.154;2023-10-19T11:18:31;24.03;;;22.90;;
9900;SDS011;4989;48.772;9.154;2023-10-19T11:23:51;24.60;;;23.40;;
9900;SDS011;4989;48.772;9.154;2023-10-19T11:28:57;24.67;;;23.47;;
9900;SDS011;4989;48.772;9.154;2023-10-19T11:34:05;24.97;;;23.77;;
9900;SDS011;4989;48.772;9.154;2023-10-19T11:39:10;24.07;;;22.93;;
9900;SDS011;4989;48.772;9.154;2023-10-19T11:44:13;24.77;;;23.57;;
9900;SDS011;4989;48.772;9.154;2023-10-19T11:49:15;24.27;;;23.10;;
9900;SDS011;4989;48.772;9.154;2023-10-19T11:54:18;24.43;;;23.27;;
9900;SDS011;4989;48.772;9.154;2023-10-19T11:59:20;23.10;;;22.00;;
9900;SDS011;4989;48.772;9.154;2023-10-19T12:04:22;22.97;;;21.87;;
9900;SDS011;4989;48.772;9.154;2023-10-19T12:09:25;23.40;;;22.27;;
9900;SDS011;4989;48.772;9.154;2023-10-19T12:14:27;22.77;;;21.67;;
9900;SDS011;4989;48.772;9.154;2023-10-19T12:19:29;23.00;;;21.90;;
9900;SDS011;4989;48.772;9.154;2023-10-19T12:24:32;23.67;;;22.47;;
9900;SDS011;4989;48.772;9.154;2023-10-19T12:29:35;22.37;;;21.27;;
9900;SDS011;4989;48.772;9.154;2023-10-19T12:34:37;22.83;;;21.73;;
9900;SDS011;4989;48.772;9.154;2023-10-19T12:39:42;23.53;;;22.40;;
9900;SDS011;4989;48.772;9.154;2023-10-19T12:44:50;23.20;;;22.07;;
9900;SDS011;4989;48.772;9.154;2023-10-19T12:49:52;23.67;;;22.50;;
9900;SDS011;4989;48.772;9.154;2023-10-19T12:54:56;23.13;;;22.03;;
9900;SDS011;4989;48.772;9.154;2023-10-19T13:00:06;23.23;;;22.13;;
9900;SDS011;4989;48.772;9.154;2023-10-19T13:05:32;23.77;;;22.63;;
9900;SDS011;4989;48.772;9.154;2023-10-19T13:10:36;21.97;;;20.93;;
9900;SDS011;4989;48.772;9.154;2023-10-19T13:15:39;21.50;;;20.50;;
9900;SDS011;4989;48.772;9.154;2023-10-19T13:20:46;21.53;;;20.53;;
9900;SDS011;4989;48.772;9.154;2023-10-19T13:25:50;22.37;;;21.27;;
9900;SDS011;4989;48.772;9.154;2023-10-19T13:30:55;22.10;;;21.03;;
9900;SDS011;4989;48.772;9.154;2023-10-19T13:36:00;22.17;;;21.13;;
9900;SDS011;4989;48.772;9.154;2023-10-19T13:41:04;21.87;;;20.87;;
9900;SDS011;4989;48.772;9.154;2023-10-19T13:46:11;22.40;;;21.33;;
9900;SDS011;4989;48.772;9.154;2023-10-19T13:51:15;22.30;;;21.23;;
9900;SDS011;4989;48.772;9.154;2023-10-19T13:56:24;21.27;;;20.27;;
9900;SDS011;4989;48.772;9.154;2023-10-19T14:01:27;21.60;;;20.60;;
9900;SDS011;4989;48.772;9.154;2023-10-19T14:06:30;22.07;;;21.03;;
9900;SDS011;4989;48.772;9.154;2023-10-19T14:11:32;22.53;;;21.43;;
9900;SDS011;4989;48.772;9.154;2023-10-19T14:16:35;23.27;;;22.17;;
9900;SDS011;4989;48.772;9.154;2023-10-19T14:21:38;23.23;;;22.13;;
9900;SDS011;4989;48.772;9.154;2023-10-19T14:26:42;23.20;;;22.10;;
9900;SDS011;4989;48.772;9.154;2023-10-19T14:31:47;23.20;;;22.10;;
9900;SDS011;4989;48.772;9.154;2023-10-19T14:36:51;23.90;;;22.70;;
9900;SDS011;4989;48.772;9.154;2023-10-19T14:41:55;24.00;;;22.80;;
9900;SDS011;4989;48.772;9.154;2023-10-19T14:46:57;24.07;;;22.87;;
9900;SDS011;4989;48.772;9.154;2023-10-19T14:52:00;23.80;;;22.60;;
9900;SDS011;4989;48.772;9.154;2023-10-19T14:57:05;24.43;;;23.23;;
9900;SDS011;4989;48.772;9.154;2023-10-19T15:02:07;24.30;;;23.10;;
9900;SDS011;4989;48.772;9.154;2023-10-19T15:07:14;23.13;;;22.00;;
9900;SDS011;4989;48.772;9.154;2023-10-19T15:12:19;23.37;;;22.20;;
9900;SDS011;4989;48.772;9.154;2023-10-19T15:17:21;23.23;;;22.10;;
9900;SDS011;4989;48.772;9.154;2023-10-19T15:22:23;23.47;;;22.33;;
9900;SDS011;4989;48.772;9.154;2023-10-19T15:27:26;23.73;;;22.53;;
9900;SDS011;4989;48.772;9.154;2023-10-19T15:32:29;24.80;;;23.60;;
9900;SDS011;4989;48.772;9.154;2023-10-19T15:37:32;23.80;;;22.60;;
9900;SDS011;4989;48.772;9.154;2023-10-19T15:42:35;23.50;;;22.40;;
9900;SDS011;4989;48.772;9.154;2023-10-19T15:47:40;23.27;;;22.17;;
9900;SDS011;4989;48.772;9.154;2023-10-19T15:52:42;23.13;;;22.03;;
9900;SDS011;4989;48.772;9.154;2023-10-19T15:57:48;21.93;;;20.90;;
9900;SDS011;4989;48.772;9.154;2023-10-19T16:02:55;21.87;;;20.83;;
9900;SDS011;4989;48.772;9.154;2023-10-19T16:07:58;22.00;;;21.00;;
9900;SDS011;4989;48.772;9.154;2023-10-19T16:13:00;21.53;;;20.53;;
9900;SDS011;4989;48.772;9.154;2023-10-19T16:18:02;21.13;;;20.13;;
9900;SDS011;4989;48.772;9.154;2023-10-19T16:23:07;21.80;;;20.80;;
9900;SDS011;4989;48.772;9.154;2023-10-19T16:28:10;22.17;;;21.10;;
9900;SDS011;4989;48.772;9.154;2023-10-19T16:33:13;22.70;;;21.60;;
9900;SDS011;4989;48.772;9.154;2023-10-19T16:38:15;23.00;;;21.90;;
9900;SDS011;4989;48.772;9.154;2023-10-19T16:43:17;23.47;;;22.37;;
9900;SDS011;4989;48.772;9.154;2023-10-19T16:48:20;23.20;;;22.10;;
9900;SDS011;4989;48.772;9.154;2023-10-19T16:53:24;22.83;;;21.73;;
9900;SDS011;4989;48.772;9.154;2023-10-19T16:58:27;22.80;;;21.70;;
9900;SDS011;4989;48.772;9.154;2023-10-19T17:03:30;22.33;;;21.27;;
9900;SDS011;4989;48.772;9.154;2023-10-19T17:08:32;22.27;;;21.17;;
9900;SDS011;4989;48.772;9.154;2023-10-19T17:13:35;22.13;;;21.07;;
9900;SDS011;4989;48.772;9.154;2023-10-19T17:18:38;22.40;;;21.30;;
9900;SDS011;4989;48.772;9.154;2023-10-19T17:23:41;22.40;;;21.30;;
9900;SDS011;4989;48.772;9.154;2023-10-19T17:28:47;23.60;;;22.47;;
9900;SDS011;4989;48.772;9.154;2023-10-19T17:33:51;23.77;;;22.60;;
9900;SDS011;4989;48.772;9.154;2023-10-19T17:38:54;24.10;;;22.90;;
9900;SDS011;4989;48.772;9.154;2023-10-19T17:43:57;23.70;;;22.53;;
9900;SDS011;4989;48.772;9.154;2023-10-19T17:48:59;23.20;;;22.10;;
9900;SDS011;4989;48.772;9.154;2023-10-19T17:54:01;23.03;;;21.93;;
9900;SDS011;4989;48.772;9.154;2023-10-19T17:59:11;22.33;;;21.23;;
9900;SDS011;4989;48.772;9.154;2023-10-19T18:04:13;22.60;;;21.50;;
9900;SDS011;4989;48.772;9.154;2023-10-19T18:09:16;22.23;;;21.13;;
9900;SDS011;4989;48.772;9.154;2023-10-19T18:14:18;22.80;;;21.70;;
9900;SDS011;4989;48.772;9.154;2023-10-19T18:19:22;22.43;;;21.33;;
9900;SDS011;4989;48.772;9.154;2023-10-19T18:24:24;22.10;;;21.00;;
9900;SDS011;4989;48.772;9.154;2023-10-19T18:29:27;22.43;;;21.33;;
9900;SDS011;4989;48.772;9.154;2023-10-19T18:34:29;22.37;;;21.27;;
9900;SDS011;4989;48.772;9.154;2023-10-19T18:39:32;22.67;;;21.57;;
9900;SDS011;4989;48.772;9.154;2023-10-19T18:44:35;22.43;;;21.33;;
9900;SDS011;4989;48.772;9.154;2023-10-19T18:49:37;22.90;;;21.80;;
9900;SDS011;4989;48.772;9.154;2023-10-19T18:54:39;22.87;;;21.77;;
9900;SDS011;4989;48.772;9.154;2023-10-19T18:59:42;22.93;;;21.83;;
9900;SDS011;4989;48.772;9.154;2023-10-19T19:04:44;23.20;;;22.10;;
9900;SDS011;4989;48.772;9.154;2023-10-19T19:09:46;22.90;;;21.80;;
9900;SDS011;4989;48.772;9.154;2023-10-19T19:14:48;22.33;;;21.23;;
9900;SDS011;4989;48.772;9.154;2023-10-19T19:19:50;22.67;;;21.57;;
9900;SDS011;4989;48.772;9.154;2023-10-19T19:24:53;22.77;;;21.67;;
9900;SDS011;4989;48.772;9.154;2023-10-19T19:29:57;23.17;;;22.07;;
9900;SDS011;4989;48.772;9.154;2023-10-19T19:34:59;23.17;;;22.07;;
9900;SDS011;4989;48.772;9.154;2023-10-19T19:40:07;22.47;;;21.37;;
9900;SDS011;4989;48.772;9.154;2023-10-19T19:45:14;23.00;;;21.90;;
9900;SDS011;4989;48.772;9.154;2023-10-19T19:50:16;22.00;;;20.93;;
9900;SDS011;4989;48.772;9.154;2023-10-19T19:55:19;22.63;;;21.53;;
9900;SDS011;4989;48.772;9.154;2023-10-19T20:00:22;22.27;;;21.17;;
9900;SDS011;4989;48.772;9.154;2023-10-19T20:05:24;22.13;;;21.07;;
9900;SDS011;4989;48.772;9.154;2023-10-19T20:10:35;21.73;;;20.73;;
9900;SDS011;4989;48.772;9.154;2023-10-19T20:15:46;21.37;;;20.37;;
9900;SDS011;4989;48.772;9.154;2023-10-19T20:20:48;21.83;;;20.80;;
9900;SDS011;4989;48.772;9.154;2023-10-19T20:25:50;21.50;;;20.50;;
9900;SDS011;4989;48.772;9.154;2023-10-19T20:30:53;21.20;;;20.20;;
9900;SDS011;4989;48.772;9.154;2023-10-19T20:35:55;20.30;;;19.40;;
9900;SDS011;4989;48.772;9.154;2023-10-19T20:40:59;20.23;;;19.33;;
9900;SDS011;4989;48.772;9.154;2023-10-19T20:46:05;20.70;;;19.73;;
9900;SDS011;4989;48.772;9.154;2023-10-19T20:51:18;21.10;;;20.10;;
9900;SDS011;4989;48.772;9.154;2023-10-19T20:56:22;20.87;;;19.90;;
9900;SDS011;4989;48.772;9.154;2023-10-19T21:01:25;21.07;;;20.07;;
9900;SDS011;4989;48.772;9.154;2023-10-19T21:06:27;21.03;;;20.03;;
9900;SDS011;4989;48.772;9.154;2023-10-19T21:11:33;21.23;;;20.23;;
9900;SDS011;4989;48.772;9.154;2023-10-19T21:16:36;20.87;;;19.87;;
9900;SDS011;4989;48.772;9.154;2023-10-19T21:21:38;21.23;;;20.23;;
9900;SDS011;4989;48.772;9.154;2023-10-19T21:26:44;21.97;;;20.97;;
9900;SDS011;4989;48.772;9.154;2023-10-19T21:31:46;21.50;;;20.50;;
9900;SDS011;4989;48.772;9.154;2023-10-19T21:36:49;21.87;;;20.87;;
9900;SDS011;4989;48.772;9.154;2023-10-19T21:41:51;22.57;;;21.47;;
9900;SDS011;4989;48.772;9.154;2023-10-19T21:46:54;22.53;;;21.43;;
9900;SDS011;4989;48.772;9.154;2023-10-19T21:51:56;19.77;;;18.77;;
9900;SDS011;4989;48.772;9.154;2023-10-19T21:56:58;22.17;;;21.07;;
9900;SDS011;4989;48.772;9.154;2023-10-19T22:02:01;21.93;;;20.90;;
9900;SDS011;4989;48.772;9.154;2023-10-19T22:07:04;22.27;;;21.20;;
9900;SDS011;4989;48.772;9.154;2023-10-19T22:12:08;21.93;;;20.90;;
9900;SDS011;4989;48.772;9.154;2023-10-19T22:17:21;21.50;;;20.50;;
9900;SDS011;4989;48.772;9.154;2023-10-19T22:22:24;21.57;;;20.57;;
9900;SDS011;4989;48.772;9.154;2023-10-19T22:27:27;22.43;;;21.33;;
9900;SDS011;4989;48.772;9.154;2023-10-19T22:32:29;22.33;;;21.23;;
9900;SDS011;4989;48.772;9.154;2023-10-19T22:37:34;21.37;;;20.37;;
9900;SDS011;4989;48.772;9.154;2023-10-19T22:42:36;21.60;;;20.60;;
9900;SDS011;4989;48.772;9.154;2023-10-19T22:47:40;21.47;;;20.47;;
9900;SDS011;4989;48.772;9.154;2023-10-19T22:52:44;21.63;;;20.63;;
9900;SDS011;4989;48.772;9.154;2023-10-19T22:57:47;21.70;;;20.70;;
9900;SDS011;4989;48.772;9.154;2023-10-19T23:02:53;21.57;;;20.57;;
9900;SDS011;4989;48.772;9.154;2023-10-19T23:07:55;21.23;;;20.23;;
9900;SDS011;4989;48.772;9.154;2023-10-19T23:12:57;21.80;;;20.77;;
9900;SDS011;4989;48.772;9.154;2023-10-19T23:18:01;22.87;;;21.77;;
9900;SDS011;4989;48.772;9.154;2023-10-19T23:23:11;22.63;;;21.53;;
9900;SDS011;4989;48.772;9.154;2023-10-19T23:28:14;22.17;;;21.10;;
9900;SDS011;4989;48.772;9.154;2023-10-19T23:33:16;22.60;;;21.50;;
9900;SDS011;4989;48.772;9.154;2023-10-19T23:38:19;22.27;;;21.17;;
9900;SDS011;4989;48.772;9.154;2023-10-19T23:43:22;22.17;;;21.10;;
9900;SDS011;4989;48.772;9.154;2023-10-19T23:48:26;21.60;;;20.60;;
9900;SDS011;4989;48.772;9.154;2023-10-19T23:53:28;21.57;;;20.57;;
9900;SDS011;4989;48.772;9.154;2023-10-19T23:58:30;21.47;;;20.47;;
